This is the latest recevied weather packets stored in our database for station/object KD4EG. If no packets are shown the sender has not sent any weather packets the latest 1 day(s).
| Time | Temp. | Humidity | Pressure | Rain* | Wind** | Luminosity | Snow |
|---|---|---|---|---|---|---|---|
| 1778066479 | 17.22° C | 80% | 1013 hPa | 0 mm | - | 7 W/m² | - |
| 1778066176 | 17.22° C | 79% | 1013.3 hPa | 0 mm | - | 9 W/m² | - |
| 1778065874 | 17.78° C | 76% | 1013 hPa | 0 mm | - | 9 W/m² | - |
| 1778065571 | 17.78° C | 75% | 1013 hPa | 0 mm | - | 2 W/m² | - |
| 1778064360 | 17.78° C | 72% | 1012.6 hPa | 0 mm | - | 0 W/m² | - |
| 1778064057 | 17.78° C | 73% | 1012.7 hPa | 0 mm | - | 0 W/m² | - |
| 1778063754 | 17.78° C | 71% | 1012.3 hPa | 0 mm | - | 0 W/m² | - |
| 1778062543 | 18.33° C | 71% | 1012.2 hPa | 0 mm | - | 0 W/m² | - |
| 1778062240 | 18.33° C | 70% | 1012.1 hPa | 0 mm | - | 0 W/m² | - |
| 1778061636 | 17.78° C | 71% | 1012.2 hPa | 0 mm | - | 0 W/m² | - |
| 1778061335 | 17.78° C | 71% | 1012.4 hPa | 0 mm | - | 0 W/m² | - |
| 1778061031 | 18.33° C | 70% | 1012.7 hPa | 0 mm | - | 0 W/m² | - |
| 1778060426 | 18.33° C | 70% | 1012.5 hPa | 0 mm | - | 0 W/m² | - |
| 1778060124 | 18.33° C | 70% | 1012.5 hPa | 0 mm | - | 0 W/m² | - |
| 1778058611 | 18.33° C | 69% | 1012.9 hPa | 0 mm | - | 0 W/m² | - |
| 1778058309 | 18.33° C | 69% | 1012.5 hPa | 0 mm | - | 0 W/m² | - |
| 1778057398 | 18.33° C | 67% | 1012.9 hPa | 0 mm | - | 0 W/m² | - |
| 1778057095 | 18.33° C | 67% | 1013 hPa | 0 mm | - | 0 W/m² | - |
| 1778056791 | 18.33° C | 67% | 1012.8 hPa | 0 mm | - | 0 W/m² | - |
| 1778055578 | 18.89° C | 64% | 1013.3 hPa | 0 mm | - | 0 W/m² | - |
| 1778055277 | 18.89° C | 65% | 1013 hPa | 0 mm | - | 0 W/m² | - |
| 1778054368 | 16.67° C | 69% | 1013 hPa | 0 mm | - | 0 W/m² | - |
| 1778054066 | 15.56° C | 72% | 1013.2 hPa | 0 mm | - | 0 W/m² | - |
| 1778053762 | 15.56° C | 73% | 1013.2 hPa | 0 mm | - | 0 W/m² | - |
| 1778052552 | 16.11° C | 71% | 1013 hPa | 0 mm | - | 0 W/m² | - |
* Rain latest hour (hover to see other rain measurements)
** Current wind speed in m/s (hover to see current wind gust speed)